Clifton, NJ (07012)

10:56 AM EDT on September 02, 2014 (GMT -0400)
Bolten Pl. | Change Station
CLOSE
Current Station
Personal Weather Station
Location: Bloomfield, NJ
Elevation: 220 ft
Nearby Weather Stations
Active Advisory: Air Quality Alert

Elev 220 ft 40.84 °N, 74.17 °W | Updated 1 minute ago

Clear
Clear
84.4 °F
Feels Like 92 °F
N
1.0
Wind Variable Wind from WSW
Gusts 2.0 mph

Today
High -- | Low -- °F
--% Chance of Precip.
Yesterday
High -- | Low -- °F
Precip. -- in
6:24 AM 7:27 PM
First Quarter, 52% visible
Pressure 29.91 in
Visibility 10.0 miles
Clouds Clear
Heat Index 92 °F
Dew Point 74 °F
Humidity 72%
Rainfall 0.00 in
Snow Depth Not available.
UV 5 out of 12
Pollen 8.40 out of 12
Air Quality Not available.
Flu Activity Not available.
METAR KTEB 021351Z 32005KT 10SM CLR 29/21 A2991 RMK AO2 SLP129 T02940211

More Conditions Fewer Conditions

Pressure 29.91 in
Visibility 10.0 miles
Clouds Clear
Heat Index 92 °F
Dew Point 74 °F
Humidity 72%
Rainfall 0.00 in
Snow Depth Not available.
UV 5 out of 12
Pollen 8.40 out of 12
Air Quality Not available.
Flu Activity Not available.
METAR KTEB 021351Z 32005KT 10SM CLR 29/21 A2991 RMK AO2 SLP129 T02940211

More Conditions Fewer Conditions

10-Day Weather Forecast

Almanac

Astronomy

Sep. 02, 2014 Rise Set
Actual Time 6:24 AM EDT 7:27 PM EDT
Civil Twilight 5:56 AM EDT 7:55 PM EDT
Nautical Twilight 5:22 AM EDT 8:28 PM EDT
Astronomical Twilight 4:47 AM EDT 9:03 PM EDT
Moon 2:09 PM EDT No Moon Set
Length of Visible Light 13h 59m
Length of Day
13h 02m
Tomorrow will be 2m 36s shorter.
First Quarter, 52% of the Moon is Illuminated
Today
First Quarter
Sep 8
Full
Sep 15
Last Quarter
Sep 24
New
Oct 1
First Quarter

Today's Extremes

State Highs State Lows

Community

WunderPhotos

Upload Photos

1,749,682 photos uploaded!

WunderBlogs® & News

Nearby

Snow Depth

Station Depth Elevation
No new snow has been reported.

Earthquake Activity

City Distance Mag. Time & Date
No recent earthquake activity has been reported nearby.
Minimum magnitude displayed is 2.5.

Coastal Water Temperatures

Place Temperature
Sandy Hook, NJ 77.0 °F
The Battery, NY 75.0 °F
Bergen Point West Reach, NJ 75.9 °F

Nearby Weather Stations